Terminal Aerodrome Forecast
Issued by NWS

Home | Current Version | Previous Version | Text Only | Print | Product List | Glossary On
Versions: 1 2 3 4 5 6 7 8 9 10 11 12 13 14
000
FTUS46 KMFR 242320
TAFRBG
TAF
KRBG 242320Z 2500/2524 23010KT P6SM -SHRA SCT025 OVC050
     FM250300 VRB03KT P6SM -SHRA SCT025 OVC040
     FM250600 VRB03KT P6SM OVC025
     FM252100 18007KT P6SM -RA SCT025 OVC040=

USA.gov is the U.S. government's official web portal to all federal, state and local government web resources and services.